Brevik Bridge — VRHY7 — position and weather

sailwx.info

Track history (hours):
 
Tides and Currents Weather Stations Pressure Air Temp Water Temp Dewpoint Dewpoint Depression Visibility Wind Speed Wind Dir Waves Ship Positions

Brevik Bridge

Last reported at 2017-Sep-16 15:17 UTC. Time now 2017-Sep-23 07:35 UTC.
Position N 31°24' W 080°01'.

Length 268 m; draft 9.4 m.

Type: Cargo ship. MMSI: 477866200.

Date/timePositionNaut miles runAvg speedWind from/ knotsBaromVisibWave heightAir tempDewpointWater temp
2017-Sep-16 15:17N 31°24' W 080°01'413.3
2017-Sep-16 14:57N 31°27' W 080°05'613.5
2017-Sep-16 14:30N 31°32' W 080°10'713.6
2017-Sep-16 14:00N 31°36' W 080°16'713.8
2017-Sep-16 13:30N 31°41' W 080°22'714.1
2017-Sep-16 13:00N 31°45' W 080°28'714.2
2017-Sep-16 12:30N 31°50' W 080°34'714.3
2017-Sep-16 12:00N 31°55' W 080°40'714.0
2017-Sep-16 11:30N 31°59' W 080°47'714.1
2017-Sep-16 11:00N 32°02' W 080°54'510.9
2017-Sep-16 10:30N 32°05' W 080°59'4 8.0
2017-Sep-16 10:00N 32°05' W 081°04'3 5.7
2017-Sep-16 09:30N 32°06' W 081°07'2 2.9
2017-Sep-16 08:59N 32°07' W 081°08'0 0.0
2017-Sep-16 08:25N 32°07' W 081°08'0 0.0
2017-Sep-16 07:55N 32°07' W 081°08'0 0.0
2017-Sep-16 07:25N 32°07' W 081°08'0 0.0
2017-Sep-16 06:55N 32°07' W 081°08'0 0.0
2017-Sep-16 06:19N 32°07' W 081°08'0 0.0
2017-Sep-16 05:58N 32°07' W 081°08'0 0.0
2017-Sep-16 05:13N 32°07' W 081°08'0 0.0
2017-Sep-16 04:55N 32°07' W 081°08'0 0.0
2017-Sep-16 04:25N 32°07' W 081°08'0 0.0
2017-Sep-16 03:49N 32°07' W 081°08'0 0.0
2017-Sep-16 03:25N 32°07' W 081°08'0 0.0
2017-Sep-16 02:55N 32°07' W 081°08'0 0.0
2017-Sep-16 02:25N 32°07' W 081°08'0 0.0
2017-Sep-16 01:49N 32°07' W 081°08'0 0.0
2017-Sep-16 01:19N 32°07' W 081°08'0 0.0
2017-Sep-16 00:31N 32°07' W 081°08'0 0.1
2017-Sep-16 00:25N 32°07' W 081°08'0 0.0
2017-Sep-15 23:55N 32°07' W 081°08'0 0.0
2017-Sep-15 23:25N 32°07' W 081°08'0 0.0
2017-Sep-15 22:49N 32°07' W 081°08'0 0.0
2017-Sep-15 22:25N 32°07' W 081°08'0 0.0
2017-Sep-15 21:55N 32°07' W 081°08'0 0.0
2017-Sep-15 21:19N 32°07' W 081°08'0 0.0
2017-Sep-15 20:49N 32°07' W 081°08'0 0.0
2017-Sep-15 20:25N 32°07' W 081°08'0 0.0
2017-Sep-15 19:55N 32°07' W 081°08'0 0.2
2017-Sep-15 19:30N 32°07' W 081°08'1 1.8
2017-Sep-15 19:00N 32°07' W 081°07'3 5.3
2017-Sep-15 18:30N 32°05' W 081°05'3 5.4
2017-Sep-15 18:00N 32°05' W 081°02'510.1
2017-Sep-15 17:31N 32°03' W 080°56'714.5
2017-Sep-15 17:00N 32°01' W 080°48'816.9
2017-Sep-15 16:30N 31°57' W 080°40'5 9.3
2017-Sep-15 16:00N 31°56' W 080°35'2 4.8
2017-Sep-15 15:30N 31°55' W 080°32'0 0.2
2017-Sep-15 14:58N 31°55' W 080°32'0 0.1
2017-Sep-15 14:28N 31°55' W 080°32'0 0.0
2017-Sep-15 13:52N 31°55' W 080°32'0 0.1
2017-Sep-15 13:22N 31°55' W 080°32'0 0.1
2017-Sep-15 12:52N 31°55' W 080°32'0 0.1
2017-Sep-15 12:28N 31°55' W 080°31'0 0.1
2017-Sep-15 11:58N 31°55' W 080°31'0 0.0
2017-Sep-15 11:22N 31°55' W 080°31'0 0.1
2017-Sep-15 09:22N 31°55' W 080°31'0 0.2
2017-Sep-15 08:52N 31°55' W 080°32'0 0.1
2017-Sep-15 08:22N 31°55' W 080°32'0 0.0
2017-Sep-15 07:10N 31°55' W 080°32'0 0.0
2017-Sep-15 06:58N 31°55' W 080°32'0 0.0
2017-Sep-15 06:22N 31°55' W 080°32'0 0.0
2017-Sep-15 05:40N 31°55' W 080°32'0 0.1
2017-Sep-15 05:28N 31°55' W 080°32'0 0.0
2017-Sep-15 04:46N 31°55' W 080°32'0 0.0
2017-Sep-15 04:28N 31°55' W 080°32'0 0.1
2017-Sep-15 03:52N 31°55' W 080°32'0 0.1
2017-Sep-15 01:34N 31°55' W 080°32'0 0.1
2017-Sep-15 01:28N 31°55' W 080°32'0 0.1
2017-Sep-15 00:58N 31°55' W 080°31'0 0.0
2017-Sep-15 00:28N 31°55' W 080°31'0 0.0
2017-Sep-14 23:58N 31°55' W 080°31'0 0.0
2017-Sep-14 23:28N 31°55' W 080°31'0 0.0
2017-Sep-14 22:58N 31°55' W 080°31'0 0.0
2017-Sep-14 21:10N 31°55' W 080°32'0 0.0
2017-Sep-14 20:58N 31°55' W 080°32'0 0.0
2017-Sep-14 20:28N 31°55' W 080°32'0 0.0
2017-Sep-14 17:04N 31°55' W 080°32'0 0.0
2017-Sep-14 16:46N 31°55' W 080°32'0 0.0
2017-Sep-14 16:28N 31°55' W 080°32'0 0.0
2017-Sep-14 15:58N 31°55' W 080°32'0 0.0
2017-Sep-14 15:28N 31°55' W 080°32'0 0.0
2017-Sep-14 14:52N 31°55' W 080°32'0 0.2
2017-Sep-14 13:52N 31°55' W 080°32'0 0.1
2017-Sep-14 13:10N 31°55' W 080°31'0 0.0
2017-Sep-14 12:34N 31°55' W 080°31'0 0.0
2017-Sep-14 12:31N 31°55' W 080°31'1 2.7
2017-Sep-14 11:59N 31°55' W 080°30'4 6.9
2017-Sep-14 11:27N 31°57' W 080°26'4 9.7
2017-Sep-14 11:00N 31°58' W 080°21'4013.9
2017-Sep-14 08:08N 32°07' W 079°35'215.8
2017-Sep-14 08:00N 32°08' W 079°33'815.9
2017-Sep-14 07:30N 32°12' W 079°25'815.9
2017-Sep-14 07:00N 32°16' W 079°17'815.9
2017-Sep-14 06:30N 32°21' W 079°09'20316.3
2017-Sep-13 18:06N 34°22' W 075°55'2417.1
2017-Sep-13 16:41N 34°39' W 075°35'617.8
2017-Sep-13 16:22N 34°44' W 075°30'12914.6
2017-Sep-13 07:29N 36°52' W 075°52'816.9
2017-Sep-13 06:59N 36°57' W 076°00'511.0
2017-Sep-13 06:30N 36°58' W 076°07'1113.9
2017-Sep-13 05:44N 36°58' W 076°20'2 9.0
2017-Sep-13 05:30N 36°56' W 076°20'1 1.1
2017-Sep-13 05:00N 36°55' W 076°20'0 0.0
2017-Sep-13 04:30N 36°55' W 076°20'0 0.0
2017-Sep-13 04:00N 36°55' W 076°20'0 0.0
2017-Sep-13 03:30N 36°55' W 076°20'0 0.0
2017-Sep-13 03:00N 36°55' W 076°20'0 0.0
2017-Sep-13 02:27N 36°55' W 076°20'0 0.0
2017-Sep-13 02:00N 36°55' W 076°20'0 0.0
2017-Sep-13 01:30N 36°55' W 076°20'0 0.0
2017-Sep-13 01:00N 36°55' W 076°20'0 0.0
2017-Sep-13 00:30N 36°55' W 076°20'0 0.0
2017-Sep-13 00:00N 36°55' W 076°20'0 0.0
2017-Sep-12 23:30N 36°55' W 076°20'0 0.0
2017-Sep-12 23:00N 36°55' W 076°20'0 0.0
2017-Sep-12 22:30N 36°55' W 076°20'0 0.0
2017-Sep-12 22:00N 36°55' W 076°20'0 0.0
2017-Sep-12 21:27N 36°55' W 076°20'0 0.0
2017-Sep-12 20:45N 36°55' W 076°20'0 0.0
2017-Sep-12 20:30N 36°55' W 076°20'0 0.0
2017-Sep-12 19:57N 36°55' W 076°20'0 0.0
2017-Sep-12 19:30N 36°55' W 076°20'0 0.0
2017-Sep-12 18:57N 36°55' W 076°20'0 0.0
2017-Sep-12 18:27N 36°55' W 076°20'0 0.0
2017-Sep-12 18:00N 36°55' W 076°20'0 0.0
2017-Sep-12 17:30N 36°55' W 076°20'0 0.0
2017-Sep-12 17:00N 36°55' W 076°20'0 0.0
2017-Sep-12 16:30N 36°55' W 076°20'0 0.0
2017-Sep-12 15:57N 36°55' W 076°20'0 0.0
2017-Sep-12 15:30N 36°55' W 076°20'0 0.0
2017-Sep-12 15:00N 36°55' W 076°20'1 1.3
2017-Sep-12 14:30N 36°56' W 076°20'4 8.3
2017-Sep-12 14:01N 36°60' W 076°18'816.0
2017-Sep-12 13:30N 36°59' W 076°08'816.4
2017-Sep-12 13:00N 36°56' W 075°59'5 9.7
2017-Sep-12 12:31N 36°54' W 075°53'3410.4
2017-Sep-12 09:15N 36°55' W 075°11'413.4
2017-Sep-12 08:57N 36°56' W 075°06'613.3
2017-Sep-12 08:31N 36°57' W 074°59'713.3
2017-Sep-12 08:00N 36°60' W 074°51'912.8
2017-Sep-12 07:18N 37°07' W 074°45'3813.4
2017-Sep-12 04:30N 37°43' W 074°30'713.5
2017-Sep-12 04:00N 37°49' W 074°27'713.3
2017-Sep-12 03:27N 37°56' W 074°24'3713.5
2017-Sep-12 00:43N 38°31' W 074°08'6613.5
2017-Sep-11 19:50N 39°36' W 073°52'814.7
2017-Sep-11 19:18N 39°44' W 073°52'414.8
2017-Sep-11 19:00N 39°48' W 073°51'3413.0
2017-Sep-11 16:25N 40°22' W 073°49'410.0
2017-Sep-11 16:00N 40°26' W 073°49'5 9.8
2017-Sep-11 15:30N 40°29' W 073°54'510.2
2017-Sep-11 15:00N 40°31' W 074°00'5 9.4
2017-Sep-11 14:30N 40°36' W 074°03'4 8.1
2017-Sep-11 14:00N 40°39' W 074°06'2 4.8
2017-Sep-11 13:30N 40°39' W 074°09'1 2.6
2017-Sep-11 13:00N 40°40' W 074°08'0 0.0
2017-Sep-11 12:29N 40°40' W 074°08'0 0.0
2017-Sep-11 11:59N 40°40' W 074°08'0 0.0
2017-Sep-11 11:29N 40°40' W 074°08'0 0.0
2017-Sep-11 10:59N 40°40' W 074°08'0 0.0
2017-Sep-11 10:29N 40°40' W 074°08'0 0.0
2017-Sep-11 09:59N 40°40' W 074°08'0 0.0
2017-Sep-11 09:29N 40°40' W 074°08'0 0.0
2017-Sep-11 08:59N 40°40' W 074°08'0 0.0
2017-Sep-11 08:29N 40°40' W 074°08'0 0.0
2017-Sep-11 07:59N 40°40' W 074°08'0 0.0
2017-Sep-11 07:29N 40°40' W 074°08'0 0.0
2017-Sep-11 06:59N 40°40' W 074°08'0 0.0
2017-Sep-11 06:29N 40°40' W 074°08'0 0.0
2017-Sep-11 05:59N 40°40' W 074°08'0 0.0
2017-Sep-11 05:29N 40°40' W 074°08'0 0.0
2017-Sep-11 04:59N 40°40' W 074°08'0 0.0
2017-Sep-11 04:29N 40°40' W 074°08'0 0.0
2017-Sep-11 03:59N 40°40' W 074°08'0 0.0
2017-Sep-11 03:29N 40°40' W 074°08'0 0.0
2017-Sep-11 02:59N 40°40' W 074°08'0 0.0
2017-Sep-11 02:29N 40°40' W 074°08'0 0.0
2017-Sep-11 01:59N 40°40' W 074°08'0 0.0
2017-Sep-11 01:29N 40°40' W 074°08'0 0.0
2017-Sep-11 00:59N 40°40' W 074°08'0 0.0
2017-Sep-11 00:29N 40°40' W 074°08'0 0.0
2017-Sep-10 23:59N 40°40' W 074°08'0 0.0
2017-Sep-10 23:29N 40°40' W 074°08'0 0.0
2017-Sep-10 22:59N 40°40' W 074°08'0 0.0
2017-Sep-10 22:29N 40°40' W 074°08'0 0.0
2017-Sep-10 21:59N 40°40' W 074°08'0 0.0
2017-Sep-10 21:29N 40°40' W 074°08'0 0.0
2017-Sep-10 20:56N 40°40' W 074°08'0 0.0
2017-Sep-10 20:29N 40°40' W 074°08'0 0.0
2017-Sep-10 19:59N 40°40' W 074°08'0 0.0
2017-Sep-10 19:26N 40°40' W 074°08'0 0.0
2017-Sep-10 18:56N 40°40' W 074°08'0 0.0
2017-Sep-10 18:29N 40°40' W 074°08'0 0.0
2017-Sep-10 17:59N 40°40' W 074°08'0 0.0
2017-Sep-10 17:29N 40°40' W 074°08'0 0.0
2017-Sep-10 16:59N 40°40' W 074°08'0 0.0
2017-Sep-10 16:29N 40°40' W 074°08'0 0.0
2017-Sep-10 15:59N 40°40' W 074°08'1 1.8
2017-Sep-10 15:30N 40°39' W 074°09'3 5.5
2017-Sep-10 15:01N 40°39' W 074°05'9 8.7
2017-Sep-10 14:00N 40°31' W 073°60'5 9.9
2017-Sep-10 13:30N 40°29' W 073°54'5 9.7
2017-Sep-10 13:00N 40°28' W 073°48'5 9.6
2017-Sep-10 12:30N 40°27' W 073°42'5 9.5
2017-Sep-10 12:01N 40°28' W 073°35'23116.1
2017-Sep-09 21:39N 40°36' W 068°32'517.0
2017-Sep-09 21:22N 40°36' W 068°25'  
Track history (hours):
 
Tides and Currents Weather Stations Pressure Air Temp Water Temp Dewpoint Dewpoint Depression Visibility Wind Speed Wind Dir Waves Ship Positions

Brevik Bridge

Last reported at 2017-Sep-16 15:17 UTC. Time now 2017-Sep-23 07:35 UTC.
Position N 31°24' W 080°01'.

Length 268 m; draft 9.4 m.

Type: Cargo ship. MMSI: 477866200.

Date/timePositionNaut miles runAvg speedWind from/ knotsBaromVisibWave heightAir tempDewpointWater temp
2017-Sep-16 15:17N 31°24' W 080°01'413.3
2017-Sep-16 14:57N 31°27' W 080°05'613.5
2017-Sep-16 14:30N 31°32' W 080°10'713.6
2017-Sep-16 14:00N 31°36' W 080°16'713.8
2017-Sep-16 13:30N 31°41' W 080°22'714.1
2017-Sep-16 13:00N 31°45' W 080°28'714.2
2017-Sep-16 12:30N 31°50' W 080°34'714.3
2017-Sep-16 12:00N 31°55' W 080°40'714.0
2017-Sep-16 11:30N 31°59' W 080°47'714.1
2017-Sep-16 11:00N 32°02' W 080°54'510.9
2017-Sep-16 10:30N 32°05' W 080°59'4 8.0
2017-Sep-16 10:00N 32°05' W 081°04'3 5.7
2017-Sep-16 09:30N 32°06' W 081°07'2 2.9
2017-Sep-16 08:59N 32°07' W 081°08'0 0.0
2017-Sep-16 08:25N 32°07' W 081°08'0 0.0
2017-Sep-16 07:55N 32°07' W 081°08'0 0.0
2017-Sep-16 07:25N 32°07' W 081°08'0 0.0
2017-Sep-16 06:55N 32°07' W 081°08'0 0.0
2017-Sep-16 06:19N 32°07' W 081°08'0 0.0
2017-Sep-16 05:58N 32°07' W 081°08'0 0.0
2017-Sep-16 05:13N 32°07' W 081°08'0 0.0
2017-Sep-16 04:55N 32°07' W 081°08'0 0.0
2017-Sep-16 04:25N 32°07' W 081°08'0 0.0
2017-Sep-16 03:49N 32°07' W 081°08'0 0.0
2017-Sep-16 03:25N 32°07' W 081°08'0 0.0
2017-Sep-16 02:55N 32°07' W 081°08'0 0.0
2017-Sep-16 02:25N 32°07' W 081°08'0 0.0
2017-Sep-16 01:49N 32°07' W 081°08'0 0.0
2017-Sep-16 01:19N 32°07' W 081°08'0 0.0
2017-Sep-16 00:31N 32°07' W 081°08'0 0.1
2017-Sep-16 00:25N 32°07' W 081°08'0 0.0
2017-Sep-15 23:55N 32°07' W 081°08'0 0.0
2017-Sep-15 23:25N 32°07' W 081°08'0 0.0
2017-Sep-15 22:49N 32°07' W 081°08'0 0.0
2017-Sep-15 22:25N 32°07' W 081°08'0 0.0
2017-Sep-15 21:55N 32°07' W 081°08'0 0.0
2017-Sep-15 21:19N 32°07' W 081°08'0 0.0
2017-Sep-15 20:49N 32°07' W 081°08'0 0.0
2017-Sep-15 20:25N 32°07' W 081°08'0 0.0
2017-Sep-15 19:55N 32°07' W 081°08'0 0.2
2017-Sep-15 19:30N 32°07' W 081°08'1 1.8
2017-Sep-15 19:00N 32°07' W 081°07'3 5.3
2017-Sep-15 18:30N 32°05' W 081°05'3 5.4
2017-Sep-15 18:00N 32°05' W 081°02'510.1
2017-Sep-15 17:31N 32°03' W 080°56'714.5
2017-Sep-15 17:00N 32°01' W 080°48'816.9
2017-Sep-15 16:30N 31°57' W 080°40'5 9.3
2017-Sep-15 16:00N 31°56' W 080°35'2 4.8
2017-Sep-15 15:30N 31°55' W 080°32'0 0.2
2017-Sep-15 14:58N 31°55' W 080°32'0 0.1
2017-Sep-15 14:28N 31°55' W 080°32'0 0.0
2017-Sep-15 13:52N 31°55' W 080°32'0 0.1
2017-Sep-15 13:22N 31°55' W 080°32'0 0.1
2017-Sep-15 12:52N 31°55' W 080°32'0 0.1
2017-Sep-15 12:28N 31°55' W 080°31'0 0.1
2017-Sep-15 11:58N 31°55' W 080°31'0 0.0
2017-Sep-15 11:22N 31°55' W 080°31'0 0.1
2017-Sep-15 09:22N 31°55' W 080°31'0 0.2
2017-Sep-15 08:52N 31°55' W 080°32'0 0.1
2017-Sep-15 08:22N 31°55' W 080°32'0 0.0
2017-Sep-15 07:10N 31°55' W 080°32'0 0.0
2017-Sep-15 06:58N 31°55' W 080°32'0 0.0
2017-Sep-15 06:22N 31°55' W 080°32'0 0.0
2017-Sep-15 05:40N 31°55' W 080°32'0 0.1
2017-Sep-15 05:28N 31°55' W 080°32'0 0.0
2017-Sep-15 04:46N 31°55' W 080°32'0 0.0
2017-Sep-15 04:28N 31°55' W 080°32'0 0.1
2017-Sep-15 03:52N 31°55' W 080°32'0 0.1
2017-Sep-15 01:34N 31°55' W 080°32'0 0.1
2017-Sep-15 01:28N 31°55' W 080°32'0 0.1
2017-Sep-15 00:58N 31°55' W 080°31'0 0.0
2017-Sep-15 00:28N 31°55' W 080°31'0 0.0
2017-Sep-14 23:58N 31°55' W 080°31'0 0.0
2017-Sep-14 23:28N 31°55' W 080°31'0 0.0
2017-Sep-14 22:58N 31°55' W 080°31'0 0.0
2017-Sep-14 21:10N 31°55' W 080°32'0 0.0
2017-Sep-14 20:58N 31°55' W 080°32'0 0.0
2017-Sep-14 20:28N 31°55' W 080°32'0 0.0
2017-Sep-14 17:04N 31°55' W 080°32'0 0.0
2017-Sep-14 16:46N 31°55' W 080°32'0 0.0
2017-Sep-14 16:28N 31°55' W 080°32'0 0.0
2017-Sep-14 15:58N 31°55' W 080°32'0 0.0
2017-Sep-14 15:28N 31°55' W 080°32'0 0.0
2017-Sep-14 14:52N 31°55' W 080°32'0 0.2
2017-Sep-14 13:52N 31°55' W 080°32'0 0.1
2017-Sep-14 13:10N 31°55' W 080°31'0 0.0
2017-Sep-14 12:34N 31°55' W 080°31'0 0.0
2017-Sep-14 12:31N 31°55' W 080°31'1 2.7
2017-Sep-14 11:59N 31°55' W 080°30'4 6.9
2017-Sep-14 11:27N 31°57' W 080°26'4 9.7
2017-Sep-14 11:00N 31°58' W 080°21'4013.9
2017-Sep-14 08:08N 32°07' W 079°35'215.8
2017-Sep-14 08:00N 32°08' W 079°33'815.9
2017-Sep-14 07:30N 32°12' W 079°25'815.9
2017-Sep-14 07:00N 32°16' W 079°17'815.9
2017-Sep-14 06:30N 32°21' W 079°09'20316.3
2017-Sep-13 18:06N 34°22' W 075°55'2417.1
2017-Sep-13 16:41N 34°39' W 075°35'617.8
2017-Sep-13 16:22N 34°44' W 075°30'12914.6
2017-Sep-13 07:29N 36°52' W 075°52'816.9
2017-Sep-13 06:59N 36°57' W 076°00'511.0
2017-Sep-13 06:30N 36°58' W 076°07'1113.9
2017-Sep-13 05:44N 36°58' W 076°20'2 9.0
2017-Sep-13 05:30N 36°56' W 076°20'1 1.1
2017-Sep-13 05:00N 36°55' W 076°20'0 0.0
2017-Sep-13 04:30N 36°55' W 076°20'0 0.0
2017-Sep-13 04:00N 36°55' W 076°20'0 0.0
2017-Sep-13 03:30N 36°55' W 076°20'0 0.0
2017-Sep-13 03:00N 36°55' W 076°20'0 0.0
2017-Sep-13 02:27N 36°55' W 076°20'0 0.0
2017-Sep-13 02:00N 36°55' W 076°20'0 0.0
2017-Sep-13 01:30N 36°55' W 076°20'0 0.0
2017-Sep-13 01:00N 36°55' W 076°20'0 0.0
2017-Sep-13 00:30N 36°55' W 076°20'0 0.0
2017-Sep-13 00:00N 36°55' W 076°20'0 0.0
2017-Sep-12 23:30N 36°55' W 076°20'0 0.0
2017-Sep-12 23:00N 36°55' W 076°20'0 0.0
2017-Sep-12 22:30N 36°55' W 076°20'0 0.0
2017-Sep-12 22:00N 36°55' W 076°20'0 0.0
2017-Sep-12 21:27N 36°55' W 076°20'0 0.0
2017-Sep-12 20:45N 36°55' W 076°20'0 0.0
2017-Sep-12 20:30N 36°55' W 076°20'0 0.0
2017-Sep-12 19:57N 36°55' W 076°20'0 0.0
2017-Sep-12 19:30N 36°55' W 076°20'0 0.0
2017-Sep-12 18:57N 36°55' W 076°20'0 0.0
2017-Sep-12 18:27N 36°55' W 076°20'0 0.0
2017-Sep-12 18:00N 36°55' W 076°20'0 0.0
2017-Sep-12 17:30N 36°55' W 076°20'0 0.0
2017-Sep-12 17:00N 36°55' W 076°20'0 0.0
2017-Sep-12 16:30N 36°55' W 076°20'0 0.0
2017-Sep-12 15:57N 36°55' W 076°20'0 0.0
2017-Sep-12 15:30N 36°55' W 076°20'0 0.0
2017-Sep-12 15:00N 36°55' W 076°20'1 1.3
2017-Sep-12 14:30N 36°56' W 076°20'4 8.3
2017-Sep-12 14:01N 36°60' W 076°18'816.0
2017-Sep-12 13:30N 36°59' W 076°08'816.4
2017-Sep-12 13:00N 36°56' W 075°59'5 9.7
2017-Sep-12 12:31N 36°54' W 075°53'3410.4
2017-Sep-12 09:15N 36°55' W 075°11'413.4
2017-Sep-12 08:57N 36°56' W 075°06'613.3
2017-Sep-12 08:31N 36°57' W 074°59'713.3
2017-Sep-12 08:00N 36°60' W 074°51'912.8
2017-Sep-12 07:18N 37°07' W 074°45'3813.4
2017-Sep-12 04:30N 37°43' W 074°30'713.5
2017-Sep-12 04:00N 37°49' W 074°27'713.3
2017-Sep-12 03:27N 37°56' W 074°24'3713.5
2017-Sep-12 00:43N 38°31' W 074°08'6613.5
2017-Sep-11 19:50N 39°36' W 073°52'814.7
2017-Sep-11 19:18N 39°44' W 073°52'414.8
2017-Sep-11 19:00N 39°48' W 073°51'3413.0
2017-Sep-11 16:25N 40°22' W 073°49'410.0
2017-Sep-11 16:00N 40°26' W 073°49'5 9.8
2017-Sep-11 15:30N 40°29' W 073°54'510.2
2017-Sep-11 15:00N 40°31' W 074°00'5 9.4
2017-Sep-11 14:30N 40°36' W 074°03'4 8.1
2017-Sep-11 14:00N 40°39' W 074°06'2 4.8
2017-Sep-11 13:30N 40°39' W 074°09'1 2.6
2017-Sep-11 13:00N 40°40' W 074°08'0 0.0
2017-Sep-11 12:29N 40°40' W 074°08'0 0.0
2017-Sep-11 11:59N 40°40' W 074°08'0 0.0
2017-Sep-11 11:29N 40°40' W 074°08'0 0.0
2017-Sep-11 10:59N 40°40' W 074°08'0 0.0
2017-Sep-11 10:29N 40°40' W 074°08'0 0.0
2017-Sep-11 09:59N 40°40' W 074°08'0 0.0
2017-Sep-11 09:29N 40°40' W 074°08'0 0.0
2017-Sep-11 08:59N 40°40' W 074°08'0 0.0
2017-Sep-11 08:29N 40°40' W 074°08'0 0.0
2017-Sep-11 07:59N 40°40' W 074°08'0 0.0
2017-Sep-11 07:29N 40°40' W 074°08'0 0.0
2017-Sep-11 06:59N 40°40' W 074°08'0 0.0
2017-Sep-11 06:29N 40°40' W 074°08'0 0.0
2017-Sep-11 05:59N 40°40' W 074°08'0 0.0
2017-Sep-11 05:29N 40°40' W 074°08'0 0.0
2017-Sep-11 04:59N 40°40' W 074°08'0 0.0
2017-Sep-11 04:29N 40°40' W 074°08'0 0.0
2017-Sep-11 03:59N 40°40' W 074°08'0 0.0
2017-Sep-11 03:29N 40°40' W 074°08'0 0.0
2017-Sep-11 02:59N 40°40' W 074°08'0 0.0
2017-Sep-11 02:29N 40°40' W 074°08'0 0.0
2017-Sep-11 01:59N 40°40' W 074°08'0 0.0
2017-Sep-11 01:29N 40°40' W 074°08'0 0.0
2017-Sep-11 00:59N 40°40' W 074°08'0 0.0
2017-Sep-11 00:29N 40°40' W 074°08'0 0.0
2017-Sep-10 23:59N 40°40' W 074°08'0 0.0
2017-Sep-10 23:29N 40°40' W 074°08'0 0.0
2017-Sep-10 22:59N 40°40' W 074°08'0 0.0
2017-Sep-10 22:29N 40°40' W 074°08'0 0.0
2017-Sep-10 21:59N 40°40' W 074°08'0 0.0
2017-Sep-10 21:29N 40°40' W 074°08'0 0.0
2017-Sep-10 20:56N 40°40' W 074°08'0 0.0
2017-Sep-10 20:29N 40°40' W 074°08'0 0.0
2017-Sep-10 19:59N 40°40' W 074°08'0 0.0
2017-Sep-10 19:26N 40°40' W 074°08'0 0.0
2017-Sep-10 18:56N 40°40' W 074°08'0 0.0
2017-Sep-10 18:29N 40°40' W 074°08'0 0.0
2017-Sep-10 17:59N 40°40' W 074°08'0 0.0
2017-Sep-10 17:29N 40°40' W 074°08'0 0.0
2017-Sep-10 16:59N 40°40' W 074°08'0 0.0
2017-Sep-10 16:29N 40°40' W 074°08'0 0.0
2017-Sep-10 15:59N 40°40' W 074°08'1 1.8
2017-Sep-10 15:30N 40°39' W 074°09'3 5.5
2017-Sep-10 15:01N 40°39' W 074°05'9 8.7
2017-Sep-10 14:00N 40°31' W 073°60'5 9.9
2017-Sep-10 13:30N 40°29' W 073°54'5 9.7
2017-Sep-10 13:00N 40°28' W 073°48'5 9.6
2017-Sep-10 12:30N 40°27' W 073°42'5 9.5
2017-Sep-10 12:01N 40°28' W 073°35'23116.1
2017-Sep-09 21:39N 40°36' W 068°32'517.0
2017-Sep-09 21:22N 40°36' W 068°25'  

Dump ship's entire track history